createdAt,value
2022-08-03T00:01:01.013Z,17.5
2022-08-03T00:02:01.983Z,17.5
2022-08-03T00:03:02.970Z,17.5
2022-08-03T00:04:03.973Z,17.5
2022-08-03T00:05:05.992Z,17.4
2022-08-03T00:06:06.993Z,17.4
2022-08-03T00:07:07.972Z,17.4
2022-08-03T00:08:08.953Z,17.4
2022-08-03T00:09:09.982Z,17.3
2022-08-03T00:10:10.953Z,17.3
2022-08-03T00:11:11.973Z,17.3
2022-08-03T00:12:13.018Z,17.3
2022-08-03T00:13:13.974Z,17.2
2022-08-03T00:14:15.052Z,17.2
2022-08-03T00:15:16.767Z,17.2
2022-08-03T00:16:17.001Z,17.2
2022-08-03T00:17:17.993Z,17.1
2022-08-03T00:18:18.928Z,17.1
2022-08-03T00:19:20.293Z,17.1
2022-08-03T00:20:22.062Z,17.1
2022-08-03T00:21:23.012Z,17.1
2022-08-03T00:22:23.954Z,17.1
2022-08-03T00:23:24.952Z,17.1
2022-08-03T00:24:25.992Z,17
2022-08-03T00:25:27.013Z,17
2022-08-03T00:26:27.995Z,17
2022-08-03T00:27:28.972Z,17
2022-08-03T00:28:29.973Z,17.1
2022-08-03T00:29:30.953Z,17.1
2022-08-03T00:30:31.993Z,17.1
2022-08-03T00:31:39.979Z,17.1
2022-08-03T00:32:33.912Z,17.1
2022-08-03T00:33:58.554Z,17
2022-08-03T00:34:36.752Z,17
2022-08-03T00:35:50.528Z,17
2022-08-03T00:36:37.994Z,17
2022-08-03T00:37:41.123Z,17
2022-08-03T00:38:39.952Z,16.9
2022-08-03T00:39:40.973Z,16.9
2022-08-03T00:40:41.934Z,16.9
2022-08-03T00:41:43.072Z,16.9
2022-08-03T00:42:43.967Z,16.9
2022-08-03T00:43:44.972Z,16.9
2022-08-03T00:44:45.955Z,16.8
2022-08-03T00:45:46.974Z,16.8
2022-08-03T00:46:48.082Z,16.8
2022-08-03T00:47:48.955Z,16.8
2022-08-03T00:48:50.392Z,16.8
2022-08-03T00:49:51.974Z,16.8
2022-08-03T00:50:54.153Z,16.8
2022-08-03T00:51:54.935Z,16.7
2022-08-03T00:52:56.034Z,16.7
2022-08-03T00:53:57.002Z,16.7
2022-08-03T00:54:58.053Z,16.7
2022-08-03T00:55:59.002Z,16.7
2022-08-03T00:57:00.545Z,16.7
2022-08-03T00:58:01.052Z,16.7
2022-08-03T00:59:01.992Z,16.7
2022-08-03T01:00:03.371Z,16.7
2022-08-03T01:04:03.056Z,16.7
2022-08-03T01:05:04.974Z,16.7
2022-08-03T01:06:05.954Z,16.6
2022-08-03T01:07:10.738Z,16.6
2022-08-03T01:08:08.995Z,16.6
2022-08-03T01:09:10.018Z,16.6
2022-08-03T01:10:10.975Z,16.6
2022-08-03T01:11:11.963Z,16.5
2022-08-03T01:12:12.998Z,16.5
2022-08-03T01:13:59.978Z,16.5
2022-08-03T01:14:18.491Z,16.5
2022-08-03T01:15:16.015Z,16.5
2022-08-03T01:16:16.976Z,16.5
2022-08-03T01:17:17.995Z,16.5
2022-08-03T01:18:19.015Z,16.5
2022-08-03T01:19:19.996Z,16.4
2022-08-03T01:20:21.020Z,16.4
2022-08-03T01:21:21.975Z,16.3
2022-08-03T01:22:22.974Z,16.3
2022-08-03T01:23:24.014Z,16.3
2022-08-03T01:24:24.975Z,16.3
2022-08-03T01:25:26.014Z,16.3
2022-08-03T01:26:26.996Z,16.2
2022-08-03T01:27:27.994Z,16.2
2022-08-03T01:28:29.035Z,16.2
2022-08-03T01:29:30.035Z,16.2
2022-08-03T01:30:31.018Z,16.2
2022-08-03T01:31:31.978Z,16.2
2022-08-03T01:32:52.327Z,16.2
2022-08-03T01:33:34.018Z,16.2
2022-08-03T01:34:35.015Z,16.2
2022-08-03T01:35:38.252Z,16.2
2022-08-03T01:36:37.014Z,16.2
2022-08-03T01:37:38.701Z,16.2
2022-08-03T01:38:39.035Z,16.2
2022-08-03T01:39:40.063Z,16.3
2022-08-03T01:40:41.014Z,16.3
2022-08-03T01:41:42.014Z,16.3
2022-08-03T01:42:43.014Z,16.2
2022-08-03T01:43:55.688Z,16.3
2022-08-03T01:44:45.055Z,16.3
2022-08-03T01:45:45.995Z,16.2
2022-08-03T01:46:47.507Z,16.2
2022-08-03T01:47:47.996Z,16.2
2022-08-03T01:48:49.017Z,16.3
2022-08-03T01:49:50.477Z,16.2
2022-08-03T01:50:51.994Z,16.2
2022-08-03T01:51:56.169Z,16.3
2022-08-03T01:52:54.014Z,16.3
2022-08-03T01:53:54.997Z,16.3
2022-08-03T01:54:56.014Z,16.2
2022-08-03T01:55:57.034Z,16.3
2022-08-03T01:56:58.034Z,16.3
2022-08-03T01:58:04.991Z,16.3
2022-08-03T01:58:59.983Z,16.3
2022-08-03T02:00:01.123Z,16.3
2022-08-03T02:01:02.065Z,16.3
2022-08-03T02:02:15.041Z,16.3
2022-08-03T02:03:04.076Z,16.3
2022-08-03T02:04:04.995Z,16.3
2022-08-03T02:05:10.561Z,16.3
2022-08-03T02:07:00.962Z,16.3
2022-08-03T02:07:08.015Z,16.2
2022-08-03T02:08:09.057Z,16.2
2022-08-03T02:09:10.038Z,16.2
2022-08-03T02:10:11.034Z,16.1
2022-08-03T02:11:12.094Z,16.1
2022-08-03T02:12:13.022Z,16
2022-08-03T02:13:14.054Z,16
2022-08-03T02:14:15.073Z,15.9
2022-08-03T02:15:16.073Z,15.9
2022-08-03T02:16:17.034Z,15.9
2022-08-03T02:17:18.015Z,15.9
2022-08-03T02:18:25.174Z,16
2022-08-03T02:19:26.053Z,15.9
2022-08-03T02:20:27.054Z,15.9
2022-08-03T02:21:56.229Z,15.9
2022-08-03T02:22:29.075Z,16
2022-08-03T02:23:30.053Z,16
2022-08-03T02:24:31.038Z,16
2022-08-03T02:25:32.133Z,16
2022-08-03T02:26:33.053Z,16
2022-08-03T02:27:34.093Z,16.1
2022-08-03T02:28:35.028Z,16.1
2022-08-03T02:29:38.968Z,16.1
2022-08-03T02:30:38.094Z,16.1
2022-08-03T02:31:40.033Z,16.1
2022-08-03T02:32:41.019Z,16.1
2022-08-03T02:33:42.095Z,16.1
2022-08-03T02:34:43.033Z,16.2
2022-08-03T02:35:44.077Z,16.2
2022-08-03T02:36:45.114Z,16.2
2022-08-03T02:37:49.510Z,16.2
2022-08-03T02:38:47.034Z,16.1
2022-08-03T02:39:48.056Z,16.2
2022-08-03T02:40:49.055Z,16.2
2022-08-03T02:41:50.473Z,16.2
2022-08-03T02:42:52.053Z,16.3
2022-08-03T02:44:05.345Z,16.3
2022-08-03T02:44:54.015Z,16.3
2022-08-03T02:45:55.006Z,16.3
2022-08-03T02:46:56.074Z,16.3
2022-08-03T02:47:57.052Z,16.3
2022-08-03T02:48:58.154Z,16.3
2022-08-03T02:49:59.280Z,16.3
2022-08-03T02:51:01.054Z,16.3
2022-08-03T02:52:02.032Z,16.3
2022-08-03T02:53:03.073Z,16.3
2022-08-03T02:54:04.133Z,16.3
2022-08-03T02:55:05.012Z,16.3
2022-08-03T02:56:06.054Z,16.3
2022-08-03T02:57:07.033Z,16.3
2022-08-03T02:58:14.222Z,16.4
2022-08-03T02:59:15.109Z,16.4
2022-08-03T03:00:19.315Z,16.4
2022-08-03T03:01:17.659Z,16.5
2022-08-03T03:02:19.380Z,16.5
2022-08-03T03:03:21.054Z,16.5
2022-08-03T03:04:22.994Z,16.5
2022-08-03T03:05:51.177Z,16.5
2022-08-03T03:06:25.074Z,16.5
2022-08-03T03:07:26.094Z,16.5
2022-08-03T03:08:28.183Z,16.5
2022-08-03T03:09:29.245Z,16.5
2022-08-03T03:10:29.096Z,16.5
2022-08-03T03:11:30.093Z,16.5
2022-08-03T03:12:31.018Z,16.5
2022-08-03T03:13:32.095Z,16.5
2022-08-03T03:14:34.128Z,16.5
2022-08-03T03:15:34.100Z,16.5
2022-08-03T03:16:35.086Z,16.5
2022-08-03T03:17:36.073Z,16.5
2022-08-03T03:18:37.053Z,16.5
2022-08-03T03:19:38.069Z,16.6
2022-08-03T03:20:39.113Z,16.6
2022-08-03T03:21:40.113Z,16.6
2022-08-03T03:22:41.057Z,16.7
2022-08-03T03:23:42.053Z,16.7
2022-08-03T03:24:43.056Z,16.7
2022-08-03T03:25:44.073Z,16.7
2022-08-03T03:26:45.094Z,16.7
2022-08-03T03:27:48.823Z,16.7
2022-08-03T03:28:47.093Z,16.8
2022-08-03T03:29:48.094Z,16.8
2022-08-03T03:30:52.952Z,16.8
2022-08-03T03:31:50.633Z,16.8
2022-08-03T03:32:52.621Z,16.8
2022-08-03T03:33:54.093Z,16.8
2022-08-03T03:34:55.093Z,16.8
2022-08-03T03:35:56.053Z,16.8
2022-08-03T03:36:57.080Z,16.8
2022-08-03T03:37:58.094Z,16.8
2022-08-03T03:38:59.093Z,16.8
2022-08-03T03:40:00.096Z,16.8
2022-08-03T03:41:01.053Z,16.8
2022-08-03T03:42:02.120Z,16.8
2022-08-03T03:43:03.095Z,16.8
2022-08-03T03:44:04.074Z,16.9
2022-08-03T03:45:05.112Z,16.9
2022-08-03T03:46:06.092Z,16.8
2022-08-03T03:47:07.076Z,16.9
2022-08-03T03:48:08.053Z,16.8
2022-08-03T03:49:09.130Z,16.9
2022-08-03T03:50:10.093Z,16.8
2022-08-03T03:51:11.114Z,16.8
2022-08-03T03:52:12.113Z,16.9
2022-08-03T03:53:13.080Z,16.8
2022-08-03T03:54:14.113Z,16.9
2022-08-03T03:55:15.074Z,16.9
2022-08-03T03:56:16.101Z,16.9
2022-08-03T03:57:17.093Z,16.9
2022-08-03T03:58:18.056Z,16.9
2022-08-03T03:59:19.112Z,16.9
2022-08-03T04:00:20.113Z,16.9
2022-08-03T04:01:21.109Z,16.9
2022-08-03T04:02:22.092Z,16.9
2022-08-03T04:03:23.112Z,16.9
2022-08-03T04:04:24.162Z,16.9
2022-08-03T04:05:25.114Z,16.9
2022-08-03T04:06:26.092Z,16.9
2022-08-03T04:07:27.079Z,17
2022-08-03T04:08:28.112Z,17
2022-08-03T04:09:29.093Z,17
2022-08-03T04:10:30.144Z,16.9
2022-08-03T04:11:31.770Z,17
2022-08-03T04:12:32.135Z,16.9
2022-08-03T04:13:33.132Z,17
2022-08-03T04:14:34.074Z,16.9
2022-08-03T04:15:35.153Z,16.9
2022-08-03T04:16:36.099Z,16.9
2022-08-03T04:17:37.091Z,16.9
2022-08-03T04:18:38.077Z,16.9
2022-08-03T04:19:39.092Z,16.9
2022-08-03T04:20:40.093Z,17
2022-08-03T04:21:41.072Z,17
2022-08-03T04:22:42.134Z,17
2022-08-03T04:23:43.172Z,17
2022-08-03T04:24:44.142Z,17
2022-08-03T04:25:45.077Z,16.9
2022-08-03T04:26:49.607Z,17
2022-08-03T04:27:47.112Z,16.9
2022-08-03T04:28:48.160Z,16.9
2022-08-03T04:29:49.093Z,16.9
2022-08-03T04:30:50.656Z,16.9
2022-08-03T04:31:52.172Z,17
2022-08-03T04:32:53.154Z,17
2022-08-03T04:33:54.100Z,16.9
2022-08-03T04:34:55.132Z,17
2022-08-03T04:36:02.488Z,17
2022-08-03T04:36:57.193Z,17
2022-08-03T04:37:58.136Z,17
2022-08-03T04:38:59.173Z,17
2022-08-03T04:40:01.230Z,17
2022-08-03T04:41:02.140Z,17
2022-08-03T04:42:17.103Z,17
2022-08-03T04:43:04.079Z,17
2022-08-03T04:44:05.193Z,17
2022-08-03T04:45:06.115Z,17
2022-08-03T04:46:08.114Z,17
2022-08-03T04:47:10.094Z,17
2022-08-03T04:48:12.144Z,17
2022-08-03T04:49:14.246Z,17
2022-08-03T04:50:19.487Z,17
2022-08-03T04:51:17.113Z,17
2022-08-03T04:52:19.233Z,17
2022-08-03T04:53:20.096Z,17
2022-08-03T04:54:21.132Z,17
2022-08-03T04:55:22.116Z,17
2022-08-03T04:56:23.118Z,17
2022-08-03T04:57:24.173Z,17
2022-08-03T04:58:25.093Z,17
2022-08-03T04:59:26.166Z,17
2022-08-03T05:00:27.173Z,17
2022-08-03T05:01:28.219Z,17
2022-08-03T05:02:29.194Z,16.9
2022-08-03T05:03:30.152Z,17
2022-08-03T05:04:31.153Z,17
2022-08-03T05:05:34.944Z,17.1
2022-08-03T05:06:35.172Z,17.1
2022-08-03T05:07:36.743Z,17.1
2022-08-03T05:08:37.440Z,17.2
2022-08-03T05:09:39.617Z,17.3
2022-08-03T05:10:39.173Z,17.3
2022-08-03T05:11:40.153Z,17.4
2022-08-03T05:12:41.143Z,17.5
2022-08-03T05:13:42.133Z,17.5
2022-08-03T05:14:43.133Z,17.6
2022-08-03T05:15:44.193Z,17.6
2022-08-03T05:16:45.120Z,17.7
2022-08-03T05:17:46.163Z,17.9
2022-08-03T05:18:47.133Z,18
2022-08-03T05:19:48.138Z,18.1
2022-08-03T05:20:49.186Z,18.2
2022-08-03T05:21:52.269Z,18.3
2022-08-03T05:22:52.154Z,18.5
2022-08-03T05:23:53.173Z,18.6
2022-08-03T05:24:54.154Z,18.6
2022-08-03T05:25:55.133Z,18.7
2022-08-03T05:26:56.155Z,18.7
2022-08-03T05:27:57.153Z,18.8
2022-08-03T05:28:58.154Z,18.9
2022-08-03T05:30:26.557Z,18.9
2022-08-03T05:31:01.173Z,18.9
2022-08-03T05:32:06.308Z,19
2022-08-03T05:33:03.176Z,19.1
2022-08-03T05:34:04.201Z,19.2
2022-08-03T05:35:56.377Z,19.2
2022-08-03T05:36:06.097Z,19.3
2022-08-03T05:37:07.153Z,19.3
2022-08-03T05:38:09.326Z,19.3
2022-08-03T05:39:10.142Z,19.4
2022-08-03T05:40:11.194Z,19.5
2022-08-03T05:41:20.650Z,19.5
2022-08-03T05:42:13.139Z,19.6
2022-08-03T05:43:14.213Z,19.7
2022-08-03T05:44:15.174Z,19.7
2022-08-03T05:45:16.135Z,19.8
2022-08-03T05:46:17.152Z,19.9
2022-08-03T05:47:18.175Z,19.8
2022-08-03T05:48:19.244Z,19.9
2022-08-03T05:49:20.246Z,19.9
2022-08-03T05:50:21.093Z,19.8
2022-08-03T05:51:22.096Z,19.8
2022-08-03T05:52:23.300Z,19.8
2022-08-03T05:53:24.146Z,19.7
2022-08-03T05:54:55.747Z,19.7
2022-08-03T05:55:29.173Z,19.7
2022-08-03T05:56:30.194Z,19.8
2022-08-03T05:57:31.161Z,19.9
2022-08-03T05:58:32.235Z,20.1
2022-08-03T05:59:38.335Z,20.2
2022-08-03T06:00:34.182Z,20.2
2022-08-03T06:01:35.270Z,20.2
2022-08-03T06:02:36.154Z,20.4
2022-08-03T06:03:37.175Z,20.5
2022-08-03T06:04:38.175Z,20.6
2022-08-03T06:05:43.174Z,20.7
2022-08-03T06:06:40.274Z,20.8
2022-08-03T06:07:41.174Z,21
2022-08-03T06:08:42.218Z,21.2
2022-08-03T06:10:34.636Z,21.2
2022-08-03T06:10:44.234Z,21.3
2022-08-03T06:11:45.153Z,21.3
2022-08-03T06:12:46.133Z,21.3
2022-08-03T06:13:47.173Z,21.4
2022-08-03T06:14:48.234Z,21.6
2022-08-03T06:15:49.214Z,21.8
2022-08-03T06:16:50.154Z,21.8
2022-08-03T06:17:51.153Z,21.8
2022-08-03T06:18:52.173Z,21.8
2022-08-03T06:19:53.194Z,21.9
2022-08-03T06:20:54.217Z,22
2022-08-03T06:21:55.176Z,22
2022-08-03T06:23:00.061Z,21.9
2022-08-03T06:23:57.214Z,21.9
2022-08-03T06:24:58.156Z,21.9
2022-08-03T06:25:59.297Z,21.8
2022-08-03T06:27:00.226Z,21.6
2022-08-03T06:28:01.215Z,21.3
2022-08-03T06:29:03.857Z,21.1
2022-08-03T06:30:03.293Z,21.1
2022-08-03T06:31:04.214Z,21.1
2022-08-03T06:32:05.265Z,21.1
2022-08-03T06:33:08.274Z,21.2
2022-08-03T06:34:31.683Z,21.2
2022-08-03T06:35:08.235Z,21.3
2022-08-03T06:36:09.215Z,21.4
2022-08-03T06:37:10.295Z,21.4
2022-08-03T06:38:11.213Z,21.4
2022-08-03T06:39:12.222Z,21.6
2022-08-03T06:40:13.756Z,21.7
2022-08-03T06:41:14.263Z,21.9
2022-08-03T06:42:15.432Z,22.1
2022-08-03T06:43:16.214Z,22.3
2022-08-03T06:44:17.355Z,22.3
2022-08-03T06:45:19.275Z,22.3
2022-08-03T06:46:20.194Z,22.4
2022-08-03T06:47:21.138Z,22.4
2022-08-03T06:48:22.214Z,22.5
2022-08-03T06:49:24.286Z,22.6
2022-08-03T06:50:26.237Z,22.7
2022-08-03T06:52:02.950Z,22.7
2022-08-03T06:52:37.299Z,22.8
2022-08-03T06:53:28.151Z,22.8
2022-08-03T06:54:32.823Z,22.8
2022-08-03T06:55:30.234Z,22.9
2022-08-03T06:56:31.174Z,23
2022-08-03T06:57:32.238Z,23.1
2022-08-03T06:58:33.199Z,23.2
2022-08-03T07:00:06.736Z,23.4
2022-08-03T07:00:35.199Z,23.5
2022-08-03T07:01:36.270Z,23.6
2022-08-03T07:02:37.215Z,23.5
2022-08-03T07:03:38.195Z,23.6
2022-08-03T07:04:39.237Z,23.8
2022-08-03T07:05:40.177Z,23.9
2022-08-03T07:06:41.174Z,23.9
2022-08-03T07:07:42.241Z,24
2022-08-03T07:08:43.276Z,24.1
2022-08-03T07:09:57.489Z,24.2
2022-08-03T07:10:45.215Z,24.3
2022-08-03T07:11:46.180Z,24.4
2022-08-03T07:12:52.949Z,24.6
2022-08-03T07:13:48.275Z,24.7
2022-08-03T07:14:49.203Z,24.8
2022-08-03T07:15:54.690Z,24.8
2022-08-03T07:16:51.177Z,24.6
2022-08-03T07:17:53.215Z,24.7
2022-08-03T07:18:54.214Z,24.7
2022-08-03T07:19:55.235Z,24.7
2022-08-03T07:20:56.255Z,24.7
2022-08-03T07:21:58.359Z,24.7
2022-08-03T07:22:58.214Z,24.7
2022-08-03T07:23:59.313Z,24.6
2022-08-03T07:25:00.254Z,24.5
2022-08-03T07:26:01.254Z,24.4
2022-08-03T07:27:02.253Z,24.3
2022-08-03T07:28:04.283Z,24.3
2022-08-03T07:29:10.957Z,24.3
2022-08-03T07:30:07.255Z,24.4
2022-08-03T07:31:09.235Z,24.3
2022-08-03T07:32:10.385Z,24.4
2022-08-03T07:33:11.217Z,24.5
2022-08-03T07:34:12.541Z,24.7
2022-08-03T07:35:16.914Z,24.9
2022-08-03T07:36:15.239Z,25
2022-08-03T07:37:16.219Z,25.1
2022-08-03T07:38:17.216Z,25
2022-08-03T07:39:18.316Z,25
2022-08-03T07:40:19.294Z,25.1
2022-08-03T07:41:20.176Z,25
2022-08-03T07:42:21.222Z,24.7
2022-08-03T07:43:23.316Z,24.3
2022-08-03T07:44:24.255Z,24.3
2022-08-03T07:45:25.244Z,24.2
2022-08-03T07:46:26.649Z,24.3
2022-08-03T07:47:34.746Z,24.3
2022-08-03T07:48:28.233Z,24.3
2022-08-03T07:49:29.346Z,24.4
2022-08-03T07:50:30.276Z,24.4
2022-08-03T07:51:31.195Z,24.3
2022-08-03T07:52:32.255Z,24.4
2022-08-03T07:53:33.242Z,24.3
2022-08-03T07:54:34.314Z,24.3
2022-08-03T07:55:35.335Z,24.3
2022-08-03T07:56:36.234Z,24.5
2022-08-03T07:57:37.234Z,24.7
2022-08-03T07:58:38.258Z,24.9
2022-08-03T07:59:49.199Z,25.2
2022-08-03T08:00:40.422Z,25.1
2022-08-03T08:01:41.288Z,25.2
2022-08-03T08:02:43.194Z,25.3
2022-08-03T08:03:52.493Z,25.5
2022-08-03T08:04:45.235Z,25.6
2022-08-03T08:05:46.242Z,25.7
2022-08-03T08:06:47.214Z,25.8
2022-08-03T08:07:50.925Z,25.9
2022-08-03T08:08:49.254Z,25.9
2022-08-03T08:09:50.275Z,25.9
2022-08-03T08:10:56.614Z,26.1
2022-08-03T08:11:52.294Z,26.1
2022-08-03T08:12:54.275Z,26.3
2022-08-03T08:13:55.233Z,26.3
2022-08-03T08:14:56.254Z,26.3
2022-08-03T08:15:57.222Z,26.4
2022-08-03T08:16:58.244Z,26.4
2022-08-03T08:17:59.275Z,26.5
2022-08-03T08:19:00.275Z,26.5
2022-08-03T08:20:01.255Z,26.5
2022-08-03T08:21:02.254Z,26.5
2022-08-03T08:22:03.274Z,26.5
2022-08-03T08:23:06.947Z,26.5
2022-08-03T08:24:08.273Z,26.5
2022-08-03T08:25:06.315Z,26.4
2022-08-03T08:26:07.294Z,26.4
2022-08-03T08:27:09.207Z,26.5
2022-08-03T08:28:21.704Z,26.5
2022-08-03T08:29:12.233Z,26.4
2022-08-03T08:30:17.325Z,26.4
2022-08-03T08:31:14.255Z,26.5
2022-08-03T08:32:15.532Z,26.5
2022-08-03T08:33:22.913Z,26.4
2022-08-03T08:34:17.294Z,26.5
2022-08-03T08:35:18.274Z,26.6
2022-08-03T08:36:19.424Z,26.8
2022-08-03T08:37:20.254Z,26.9
2022-08-03T08:38:21.218Z,27
2022-08-03T08:39:22.233Z,27
2022-08-03T08:40:23.315Z,27
2022-08-03T08:41:24.282Z,26.9
2022-08-03T08:42:25.258Z,26.8
2022-08-03T08:43:27.314Z,26.6
2022-08-03T08:44:28.294Z,26.5
2022-08-03T08:45:29.377Z,26.5
2022-08-03T08:46:30.313Z,26.6
2022-08-03T08:47:50.771Z,26.5
2022-08-03T08:48:32.315Z,26.5
2022-08-03T08:49:33.398Z,26.6
2022-08-03T08:50:34.314Z,26.6
2022-08-03T08:51:51.073Z,26.6
2022-08-03T08:52:37.293Z,26.6
2022-08-03T08:53:39.341Z,26.5
2022-08-03T08:54:40.356Z,26.5
2022-08-03T08:55:56.910Z,26.6
2022-08-03T08:56:42.221Z,26.5
2022-08-03T08:57:43.647Z,26.4
2022-08-03T08:58:44.269Z,26.4
2022-08-03T08:59:48.070Z,26.5
2022-08-03T09:00:46.281Z,26.6
2022-08-03T09:01:47.298Z,26.7
2022-08-03T09:02:48.317Z,26.9
2022-08-03T09:03:49.296Z,27.1
2022-08-03T09:04:50.364Z,27.2
2022-08-03T09:05:55.989Z,27.3
2022-08-03T09:07:10.743Z,27.6
2022-08-03T09:07:53.313Z,27.8
2022-08-03T09:08:54.327Z,27.8
2022-08-03T09:10:10.116Z,27.7
2022-08-03T09:10:57.275Z,27.7
2022-08-03T09:12:14.538Z,27.7
2022-08-03T09:12:59.338Z,27.8
2022-08-03T09:14:00.334Z,27.9
2022-08-03T09:15:16.238Z,27.9
2022-08-03T09:16:02.414Z,27.8
2022-08-03T09:17:03.360Z,27.9
2022-08-03T09:18:04.283Z,27.8
2022-08-03T09:19:05.314Z,27.8
2022-08-03T09:20:06.394Z,27.9
2022-08-03T09:21:24.466Z,28
2022-08-03T09:22:08.272Z,28.1
2022-08-03T09:23:33.411Z,28.1
2022-08-03T09:24:20.849Z,28.1
2022-08-03T09:25:25.632Z,28.1
2022-08-03T09:26:12.274Z,27.9
2022-08-03T09:27:13.344Z,28
2022-08-03T09:28:14.293Z,28
2022-08-03T09:29:15.614Z,28
2022-08-03T09:30:19.208Z,28.1
2022-08-03T09:31:17.357Z,27.9
2022-08-03T09:32:18.383Z,27.8
2022-08-03T09:33:20.334Z,27.8
2022-08-03T09:34:21.313Z,27.9
2022-08-03T09:35:27.954Z,27.9
2022-08-03T09:36:23.274Z,27.9
2022-08-03T09:37:28.083Z,27.8
2022-08-03T09:38:25.313Z,28
2022-08-03T09:39:28.661Z,28.3
2022-08-03T09:40:27.274Z,28.4
2022-08-03T09:41:28.313Z,28.6
2022-08-03T09:42:29.314Z,28.6
2022-08-03T09:43:30.334Z,28.6
2022-08-03T09:44:31.314Z,28.3
2022-08-03T09:45:32.335Z,28
2022-08-03T09:46:33.333Z,27.9
2022-08-03T09:47:34.505Z,28
2022-08-03T09:48:35.334Z,28.1
2022-08-03T09:49:36.360Z,28.1
2022-08-03T09:50:37.288Z,28.3
2022-08-03T09:52:33.310Z,28.4
2022-08-03T09:52:49.543Z,28.5
2022-08-03T09:53:42.377Z,28.7
2022-08-03T09:54:43.314Z,28.8
2022-08-03T09:56:31.030Z,28.9
2022-08-03T09:56:45.320Z,29
2022-08-03T09:57:46.376Z,29.2
2022-08-03T09:58:47.360Z,29
2022-08-03T09:59:48.334Z,29
2022-08-03T10:00:49.391Z,29.1
2022-08-03T10:01:50.308Z,29
2022-08-03T10:02:51.413Z,28.8
2022-08-03T10:04:02.881Z,28.9
2022-08-03T10:04:53.298Z,28.9
2022-08-03T10:05:59.141Z,28.8
2022-08-03T10:06:55.358Z,28.7
2022-08-03T10:07:56.322Z,28.7
2022-08-03T10:08:57.394Z,28.7
2022-08-03T10:09:58.295Z,28.8
2022-08-03T10:10:59.328Z,28.9
2022-08-03T10:12:00.329Z,29.1
2022-08-03T10:13:01.277Z,29.3
2022-08-03T10:14:02.413Z,29.6
2022-08-03T10:15:03.495Z,29.7
2022-08-03T10:16:20.894Z,29.7
2022-08-03T10:17:05.413Z,29.8
2022-08-03T10:18:06.376Z,29.8
2022-08-03T10:19:07.336Z,29.6
2022-08-03T10:20:08.415Z,29.4
2022-08-03T10:21:09.354Z,29.1
2022-08-03T10:22:10.372Z,28.9
2022-08-03T10:23:11.374Z,28.8
2022-08-03T10:24:12.257Z,28.7
2022-08-03T10:25:13.587Z,28.8
2022-08-03T10:26:14.354Z,29
2022-08-03T10:27:15.624Z,29.2
2022-08-03T10:28:16.337Z,29.2
2022-08-03T10:29:17.897Z,29.3
2022-08-03T10:30:19.395Z,29.5
2022-08-03T10:31:20.361Z,29.5
2022-08-03T10:32:21.346Z,29.5
2022-08-03T10:33:50.571Z,29.6
2022-08-03T10:34:23.373Z,29.8
2022-08-03T10:35:24.478Z,29.9
2022-08-03T10:36:25.417Z,29.8
2022-08-03T10:37:26.333Z,29.8
2022-08-03T10:38:27.301Z,29.8
2022-08-03T10:39:28.295Z,29.6
2022-08-03T10:40:59.399Z,29.5
2022-08-03T10:41:30.453Z,29.6
2022-08-03T10:42:31.322Z,29.6
2022-08-03T10:43:32.393Z,29.5
2022-08-03T10:44:33.313Z,29.6
2022-08-03T10:45:34.395Z,29.7
2022-08-03T10:46:35.372Z,29.7
2022-08-03T10:47:36.393Z,29.7
2022-08-03T10:48:37.375Z,29.8
2022-08-03T10:49:38.421Z,29.7
2022-08-03T10:50:40.389Z,29.6
2022-08-03T10:51:41.314Z,29.6
2022-08-03T10:52:43.560Z,29.8
2022-08-03T10:53:44.075Z,29.7
2022-08-03T10:54:44.354Z,29.6
2022-08-03T10:55:45.394Z,29.7
2022-08-03T10:56:49.471Z,29.7
2022-08-03T10:57:48.058Z,29.7
2022-08-03T10:58:53.621Z,29.8
2022-08-03T10:59:49.357Z,29.9
2022-08-03T11:00:50.434Z,29.9
2022-08-03T11:01:59.372Z,30.1
2022-08-03T11:02:52.314Z,30.2
2022-08-03T11:03:53.339Z,30.1
2022-08-03T11:04:54.353Z,30.1
2022-08-03T11:05:55.415Z,30
2022-08-03T11:06:56.354Z,30
2022-08-03T11:07:57.335Z,30.1
2022-08-03T11:08:58.394Z,30.1
2022-08-03T11:09:59.399Z,30.2
2022-08-03T11:11:00.435Z,30.3
2022-08-03T11:12:01.358Z,30.3
2022-08-03T11:13:02.407Z,30.3
2022-08-03T11:14:03.464Z,30.2
2022-08-03T11:15:04.418Z,30
2022-08-03T11:16:07.155Z,29.9
2022-08-03T11:17:06.394Z,29.8
2022-08-03T11:18:07.408Z,29.7
2022-08-03T11:19:08.414Z,29.5
2022-08-03T11:20:09.463Z,29.5
2022-08-03T11:21:10.394Z,29.6
2022-08-03T11:22:11.359Z,29.5
2022-08-03T11:23:12.398Z,29.6
2022-08-03T11:24:13.353Z,29.5
2022-08-03T11:25:53.258Z,29.3
2022-08-03T11:26:15.452Z,29
2022-08-03T11:27:16.618Z,28.9
2022-08-03T11:28:17.441Z,28.9
2022-08-03T11:29:18.394Z,29
2022-08-03T11:30:19.492Z,29.2
2022-08-03T11:31:39.533Z,29.3
2022-08-03T11:32:21.413Z,29.5
2022-08-03T11:33:22.361Z,29.6
2022-08-03T11:34:23.371Z,29.5
2022-08-03T11:35:24.393Z,29.4
2022-08-03T11:36:31.936Z,29.3
2022-08-03T11:37:31.468Z,29.3
2022-08-03T11:38:28.395Z,29.2
2022-08-03T11:39:32.393Z,29.2
2022-08-03T11:40:33.350Z,29
2022-08-03T11:41:42.892Z,28.9
2022-08-03T11:42:35.454Z,28.8
2022-08-03T11:43:36.381Z,28.9
2022-08-03T11:44:37.335Z,29
2022-08-03T11:45:38.372Z,29.1
2022-08-03T11:46:39.374Z,29.4
2022-08-03T11:47:50.378Z,29.8
2022-08-03T11:48:41.413Z,30.1
2022-08-03T11:49:42.420Z,30.4
2022-08-03T11:50:43.389Z,30.6
2022-08-03T11:51:44.474Z,30.7
2022-08-03T11:52:46.455Z,30.6
2022-08-03T11:53:47.394Z,30.3
2022-08-03T11:54:48.394Z,29.9
2022-08-03T11:55:49.397Z,29.7
2022-08-03T11:56:50.374Z,29.6
2022-08-03T11:58:57.275Z,29.5
2022-08-03T11:58:57.397Z,29.6
2022-08-03T11:59:53.433Z,30
2022-08-03T12:00:54.414Z,30.2
2022-08-03T12:01:55.379Z,30.5
2022-08-03T12:02:56.547Z,30.7
2022-08-03T12:03:58.497Z,30.8
2022-08-03T12:04:59.482Z,31
2022-08-03T12:06:00.416Z,31.1
2022-08-03T12:07:01.373Z,31.4
2022-08-03T12:08:06.284Z,31.4
2022-08-03T12:09:04.373Z,31.2
2022-08-03T12:10:05.404Z,31
2022-08-03T12:11:06.353Z,30.8
2022-08-03T12:12:07.415Z,30.6
2022-08-03T12:13:57.058Z,30.5
2022-08-03T12:14:45.908Z,30.5
2022-08-03T12:15:11.453Z,30.4
2022-08-03T12:16:12.395Z,30.4
2022-08-03T12:17:13.374Z,30.5
2022-08-03T12:18:14.423Z,30.7
2022-08-03T12:19:15.414Z,30.8
2022-08-03T12:20:16.376Z,30.9
2022-08-03T12:21:17.456Z,31
2022-08-03T12:22:18.394Z,30.7
2022-08-03T12:23:19.465Z,30.5
2022-08-03T12:24:20.473Z,30.6
2022-08-03T12:25:38.398Z,30.7
2022-08-03T12:26:22.442Z,30.8
2022-08-03T12:27:23.454Z,30.8
2022-08-03T12:28:28.533Z,30.9
2022-08-03T12:29:26.454Z,30.8
2022-08-03T12:30:27.474Z,30.8
2022-08-03T12:31:28.393Z,30.8
2022-08-03T12:32:29.328Z,30.7
2022-08-03T12:33:30.415Z,30.8
2022-08-03T12:34:31.416Z,30.8
2022-08-03T12:35:32.459Z,31
2022-08-03T12:36:33.413Z,31.1
2022-08-03T12:37:34.707Z,31.2
2022-08-03T12:38:36.349Z,31.3
2022-08-03T12:39:36.401Z,31.4
2022-08-03T12:40:37.474Z,31.5
2022-08-03T12:41:38.395Z,31.6
2022-08-03T12:42:39.439Z,31.7
2022-08-03T12:43:40.432Z,31.5
2022-08-03T12:44:41.395Z,31.1
2022-08-03T12:45:42.454Z,30.6
2022-08-03T12:46:47.653Z,30.3
2022-08-03T12:47:44.418Z,30.2
2022-08-03T12:48:45.414Z,30.2
2022-08-03T12:49:46.457Z,30.3
2022-08-03T12:50:47.495Z,30.4
2022-08-03T12:51:48.390Z,30.7
2022-08-03T12:52:49.414Z,31.1
2022-08-03T12:53:50.494Z,31.3
2022-08-03T12:54:51.454Z,31.6
2022-08-03T12:55:57.503Z,31.7
2022-08-03T12:56:53.436Z,31.6
2022-08-03T12:57:54.435Z,31.4
2022-08-03T12:58:55.455Z,31.2
2022-08-03T12:59:57.453Z,31.1
2022-08-03T13:00:58.513Z,31.1
2022-08-03T13:01:59.486Z,31.2
2022-08-03T13:03:17.591Z,31.3
2022-08-03T13:04:01.395Z,31.5
2022-08-03T13:05:02.488Z,31.7
2022-08-03T13:06:03.495Z,31.9
2022-08-03T13:07:04.498Z,32
2022-08-03T13:08:05.514Z,32.2
2022-08-03T13:09:06.476Z,32.3
2022-08-03T13:10:08.230Z,32.5
2022-08-03T13:11:08.469Z,32.6
2022-08-03T13:12:10.454Z,32.4
2022-08-03T13:13:11.495Z,32.3
2022-08-03T13:14:13.596Z,32.1
2022-08-03T13:15:13.517Z,31.8
2022-08-03T13:16:18.820Z,31.7
2022-08-03T13:17:15.378Z,31.8
2022-08-03T13:18:17.187Z,31.8
2022-08-03T13:19:17.444Z,31.9
2022-08-03T13:20:18.853Z,32.1
2022-08-03T13:21:20.496Z,32.2
2022-08-03T13:22:21.442Z,32.4
2022-08-03T13:23:22.901Z,32.4
2022-08-03T13:24:23.437Z,32.4
2022-08-03T13:25:24.480Z,32.2
2022-08-03T13:26:25.434Z,32.1
2022-08-03T13:28:02.770Z,31.7
2022-08-03T13:28:27.595Z,31.6
2022-08-03T13:29:29.454Z,31.7
2022-08-03T13:30:30.717Z,31.6
2022-08-03T13:31:31.435Z,31.6
2022-08-03T13:32:32.496Z,31.7
2022-08-03T13:33:33.571Z,31.8
2022-08-03T13:34:34.455Z,31.8
2022-08-03T13:35:35.487Z,31.9
2022-08-03T13:36:59.376Z,32.1
2022-08-03T13:37:37.477Z,32
2022-08-03T13:38:38.527Z,32
2022-08-03T13:40:00.043Z,31.9
2022-08-03T13:40:42.520Z,31.8
2022-08-03T13:41:43.437Z,31.8
2022-08-03T13:42:44.454Z,31.8
2022-08-03T13:43:45.435Z,31.7